createdAt,value
2023-03-18T00:01:35.295Z,100221.88
2023-03-18T00:04:04.295Z,100224.84
2023-03-18T00:06:32.178Z,100218.41
2023-03-18T00:08:59.845Z,100212.75
2023-03-18T00:11:28.797Z,100214.78
2023-03-18T00:13:56.363Z,100217.06
2023-03-18T00:16:24.256Z,100216.03
2023-03-18T00:18:52.080Z,100220.19
2023-03-18T00:21:19.782Z,100216.84
2023-03-18T00:23:48.790Z,100212.91
2023-03-18T00:26:17.132Z,100215.88
2023-03-18T00:28:46.157Z,100210.34
2023-03-18T00:31:14.028Z,100214.97
2023-03-18T00:33:45.690Z,100216.25
2023-03-18T00:36:14.655Z,100218.75
2023-03-18T00:38:46.006Z,100214.97
2023-03-18T00:41:15.774Z,100216.66
2023-03-18T00:43:52.592Z,100222.09
2023-03-18T00:46:23.440Z,100230.63
2023-03-18T00:48:52.174Z,100233.75
2023-03-18T00:51:22.612Z,100236.28
2023-03-18T00:53:52.118Z,100244.63
2023-03-18T00:56:22.067Z,100237.75
2023-03-18T00:58:52.228Z,100246.75
2023-03-18T01:01:20.764Z,100253.00
2023-03-18T01:03:50.043Z,100253.47
2023-03-18T01:06:20.563Z,100258.72
2023-03-18T01:08:48.190Z,100257.06
2023-03-18T01:11:16.171Z,100256.22
2023-03-18T01:13:44.245Z,100257.28
2023-03-18T01:16:13.557Z,100257.72
2023-03-18T01:18:41.798Z,100252.25
2023-03-18T01:21:10.580Z,100251.78
2023-03-18T01:23:39.229Z,100246.75
2023-03-18T01:26:07.615Z,100243.81
2023-03-18T01:28:35.264Z,100237.91
2023-03-18T01:31:03.239Z,100235.66
2023-03-18T01:33:33.420Z,100247.56
2023-03-18T01:36:03.786Z,100255.28
2023-03-18T01:38:31.833Z,100261.78
2023-03-18T01:41:00.180Z,100260.09
2023-03-18T01:43:30.512Z,100258.44
2023-03-18T01:46:00.229Z,100259.47
2023-03-18T01:48:30.799Z,100261.16
2023-03-18T01:51:02.831Z,100260.72
2023-03-18T01:53:36.023Z,100269.25
2023-03-18T01:56:05.946Z,100259.00
2023-03-18T01:58:38.204Z,100262.94
2023-03-18T02:01:10.483Z,100251.00
2023-03-18T02:03:41.940Z,100259.16
2023-03-18T02:06:12.353Z,100253.72
2023-03-18T02:08:41.167Z,100253.72
2023-03-18T02:11:10.157Z,100253.03
2023-03-18T02:13:41.345Z,100246.41
2023-03-18T02:16:14.597Z,100247.44
2023-03-18T02:18:46.924Z,100253.72
2023-03-18T02:21:29.605Z,100254.38
2023-03-18T02:24:09.461Z,100256.56
2023-03-18T02:26:52.464Z,100260.22
2023-03-18T02:29:22.946Z,100255.84
2023-03-18T02:31:51.022Z,100255.66
2023-03-18T02:34:19.595Z,100251.91
2023-03-18T02:36:47.463Z,100254.63
2023-03-18T02:39:16.708Z,100247.28
2023-03-18T02:41:45.429Z,100249.19
2023-03-18T02:44:13.690Z,100250.22
2023-03-18T02:46:53.922Z,100260.50
2023-03-18T02:49:23.275Z,100265.53
2023-03-18T02:51:53.939Z,100272.84
2023-03-18T02:54:23.564Z,100263.28
2023-03-18T02:56:51.876Z,100273.28
2023-03-18T02:59:20.499Z,100278.47
2023-03-18T03:01:52.112Z,100280.38
2023-03-18T03:04:22.096Z,100277.03
2023-03-18T03:06:50.279Z,100279.09
2023-03-18T03:09:18.461Z,100278.28
2023-03-18T03:11:48.108Z,100288.50
2023-03-18T03:14:17.213Z,100279.16
2023-03-18T03:16:45.199Z,100277.06
2023-03-18T03:19:14.283Z,100292.31
2023-03-18T03:21:42.298Z,100291.31
2023-03-18T03:24:10.867Z,100302.19
2023-03-18T03:26:38.572Z,100292.38
2023-03-18T03:29:07.312Z,100298.41
2023-03-18T03:31:35.617Z,100295.72
2023-03-18T03:34:04.674Z,100307.19
2023-03-18T03:36:33.660Z,100300.78
2023-03-18T03:39:01.332Z,100307.03
2023-03-18T03:41:28.989Z,100291.78
2023-03-18T03:43:56.628Z,100296.38
2023-03-18T03:46:24.275Z,100299.31
2023-03-18T03:48:51.955Z,100297.25
2023-03-18T03:51:19.803Z,100297.88
2023-03-18T03:53:48.879Z,100295.63
2023-03-18T03:56:17.960Z,100299.59
2023-03-18T03:58:45.724Z,100293.94
2023-03-18T04:01:13.559Z,100298.13
2023-03-18T04:03:41.105Z,100305.66
2023-03-18T04:06:09.015Z,100305.66
2023-03-18T04:08:36.722Z,100319.44
2023-03-18T04:11:05.961Z,100313.19
2023-03-18T04:13:33.705Z,100309.84
2023-03-18T04:16:01.451Z,100311.94
2023-03-18T04:18:29.064Z,100304.19
2023-03-18T04:20:56.773Z,100303.59
2023-03-18T04:23:24.380Z,100300.44
2023-03-18T04:25:52.253Z,100304.19
2023-03-18T04:28:21.191Z,100304.44
2023-03-18T04:30:49.046Z,100302.56
2023-03-18T04:33:16.707Z,100313.19
2023-03-18T04:35:44.612Z,100314.03
2023-03-18T04:38:12.874Z,100315.31
2023-03-18T04:40:40.852Z,100322.81
2023-03-18T04:43:09.897Z,100318.47
2023-03-18T04:45:38.885Z,100311.19
2023-03-18T04:48:06.871Z,100309.50
2023-03-18T04:50:35.271Z,100319.31
2023-03-18T04:53:03.397Z,100316.81
2023-03-18T04:55:31.313Z,100318.69
2023-03-18T04:57:59.078Z,100313.91
2023-03-18T05:00:27.639Z,100320.78
2023-03-18T05:02:56.615Z,100309.75
2023-03-18T05:05:24.247Z,100309.97
2023-03-18T05:07:52.016Z,100310.78
2023-03-18T05:10:19.869Z,100311.00
2023-03-18T05:12:48.522Z,100321.03
2023-03-18T05:15:16.151Z,100318.50
2023-03-18T05:17:43.948Z,100307.88
2023-03-18T05:20:16.564Z,100308.31
2023-03-18T05:22:44.189Z,100309.16
2023-03-18T05:25:12.641Z,100315.81
2023-03-18T05:27:40.502Z,100316.88
2023-03-18T05:30:09.515Z,100317.94
2023-03-18T05:32:38.025Z,100321.47
2023-03-18T05:35:06.748Z,100330.00
2023-03-18T05:37:36.885Z,100332.09
2023-03-18T05:40:05.020Z,100318.31
2023-03-18T05:42:35.169Z,100331.06
2023-03-18T05:45:05.072Z,100340.22
2023-03-18T05:47:32.961Z,100340.44
2023-03-18T05:50:02.827Z,100337.31
2023-03-18T05:52:33.121Z,100347.97
2023-03-18T05:55:02.330Z,100348.34
2023-03-18T05:57:32.647Z,100350.44
2023-03-18T06:00:00.724Z,100344.81
2023-03-18T06:02:28.400Z,100353.56
2023-03-18T06:04:56.012Z,100357.97
2023-03-18T06:07:23.643Z,100352.97
2023-03-18T06:09:52.236Z,100347.56
2023-03-18T06:12:23.900Z,100356.47
2023-03-18T06:14:52.366Z,100363.38
2023-03-18T06:17:20.291Z,100358.38
2023-03-18T06:19:48.985Z,100356.25
2023-03-18T06:22:17.460Z,100349.59
2023-03-18T06:24:47.186Z,100349.78
2023-03-18T06:27:15.922Z,100347.50
2023-03-18T06:29:45.173Z,100352.47
2023-03-18T06:32:13.080Z,100348.50
2023-03-18T06:34:41.045Z,100355.00
2023-03-18T06:37:09.601Z,100355.78
2023-03-18T06:39:38.149Z,100362.03
2023-03-18T06:42:07.018Z,100363.94
2023-03-18T06:44:35.313Z,100369.56
2023-03-18T06:47:04.309Z,100377.50
2023-03-18T06:49:32.531Z,100385.00
2023-03-18T06:52:00.412Z,100381.88
2023-03-18T06:54:28.621Z,100392.72
2023-03-18T06:56:56.228Z,100390.44
2023-03-18T06:59:23.926Z,100394.56
2023-03-18T07:01:51.627Z,100394.56
2023-03-18T07:04:20.640Z,100400.00
2023-03-18T07:06:48.289Z,100406.44
2023-03-18T07:09:16.732Z,100399.56
2023-03-18T07:11:45.681Z,100405.16
2023-03-18T07:14:14.425Z,100403.88
2023-03-18T07:16:44.732Z,100399.06
2023-03-18T07:19:12.429Z,100406.59
2023-03-18T07:21:42.916Z,100405.31
2023-03-18T07:24:11.272Z,100411.53
2023-03-18T07:26:39.295Z,100410.94
2023-03-18T07:29:07.022Z,100419.44
2023-03-18T07:31:34.813Z,100432.34
2023-03-18T07:34:02.552Z,100430.13
2023-03-18T07:36:30.329Z,100431.59
2023-03-18T07:39:02.018Z,100432.41
2023-03-18T07:41:29.981Z,100435.94
2023-03-18T07:43:57.770Z,100437.03
2023-03-18T07:46:25.817Z,100439.53
2023-03-18T07:48:56.123Z,100442.66
2023-03-18T07:51:23.780Z,100445.59
2023-03-18T07:53:51.746Z,100448.25
2023-03-18T07:56:21.257Z,100444.06
2023-03-18T07:58:49.086Z,100455.59
2023-03-18T08:01:18.362Z,100451.19
2023-03-18T08:03:47.450Z,100456.81
2023-03-18T08:06:16.360Z,100451.38
2023-03-18T08:08:45.456Z,100451.19
2023-03-18T08:11:14.723Z,100462.72
2023-03-18T08:13:43.951Z,100454.97
2023-03-18T08:16:12.223Z,100448.22
2023-03-18T08:18:39.927Z,100460.63
2023-03-18T08:21:07.793Z,100451.31
2023-03-18T08:23:35.799Z,100460.00
2023-03-18T08:26:03.658Z,100459.16
2023-03-18T08:28:31.402Z,100468.22
2023-03-18T08:31:01.164Z,100463.09
2023-03-18T08:33:28.978Z,100474.22
2023-03-18T08:35:57.813Z,100470.81
2023-03-18T08:38:25.852Z,100474.97
2023-03-18T08:40:53.817Z,100473.41
2023-03-18T08:43:23.010Z,100473.59
2023-03-18T08:45:54.535Z,100474.88
2023-03-18T08:48:25.665Z,100481.22
2023-03-18T08:50:53.562Z,100476.34
2023-03-18T08:53:21.348Z,100478.91
2023-03-18T08:55:49.508Z,100486.56
2023-03-18T08:58:18.411Z,100497.03
2023-03-18T09:00:46.755Z,100494.41
2023-03-18T09:03:16.000Z,100501.94
2023-03-18T09:05:48.869Z,100494.56
2023-03-18T09:08:16.629Z,100494.94
2023-03-18T09:10:47.244Z,100498.28
2023-03-18T09:13:15.403Z,100496.19
2023-03-18T09:15:43.164Z,100500.94
2023-03-18T09:18:12.638Z,100495.31
2023-03-18T09:20:40.553Z,100498.38
2023-03-18T09:23:11.363Z,100507.34
2023-03-18T09:25:39.922Z,100507.09
2023-03-18T09:28:07.712Z,100502.69
2023-03-18T09:30:39.385Z,100500.63
2023-03-18T09:33:09.178Z,100503.00
2023-03-18T09:35:38.483Z,100503.28
2023-03-18T09:38:07.222Z,100504.06
2023-03-18T09:40:41.327Z,100507.56
2023-03-18T09:43:21.047Z,100518.84
2023-03-18T09:46:00.553Z,100514.31
2023-03-18T09:48:45.889Z,100516.34
2023-03-18T09:51:25.369Z,100511.88
2023-03-18T09:53:57.755Z,100514.91
2023-03-18T09:56:30.548Z,100513.47
2023-03-18T09:59:03.367Z,100513.56
2023-03-18T10:01:34.739Z,100518.91
2023-03-18T10:04:07.255Z,100516.81
2023-03-18T10:06:39.169Z,100518.84
2023-03-18T10:09:15.868Z,100508.13
2023-03-18T10:11:47.326Z,100517.72
2023-03-18T10:14:25.239Z,100519.38
2023-03-18T10:17:04.673Z,100517.94
2023-03-18T10:19:32.916Z,100524.38
2023-03-18T10:22:18.140Z,100526.84
2023-03-18T10:24:53.651Z,100521.41
2023-03-18T10:27:38.295Z,100525.97
2023-03-18T10:30:30.372Z,100527.50
2023-03-18T10:33:08.202Z,100521.22
2023-03-18T10:35:41.483Z,100526.56
2023-03-18T10:38:18.936Z,100529.88
2023-03-18T10:40:47.920Z,100531.28
2023-03-18T10:43:19.431Z,100526.44
2023-03-18T10:45:49.513Z,100523.28
2023-03-18T10:48:26.546Z,100530.19
2023-03-18T10:51:04.707Z,100529.56
2023-03-18T10:53:39.036Z,100520.56
2023-03-18T10:56:10.402Z,100539.03
2023-03-18T10:58:41.493Z,100528.50
2023-03-18T11:01:13.117Z,100531.94
2023-03-18T11:03:45.043Z,100538.69
2023-03-18T11:06:18.785Z,100543.03
2023-03-18T11:08:49.825Z,100536.09
2023-03-18T11:11:23.734Z,100531.22
2023-03-18T11:13:55.711Z,100531.94
2023-03-18T11:16:30.607Z,100529.56
2023-03-18T11:19:00.015Z,100540.69
2023-03-18T11:21:29.863Z,100535.72
2023-03-18T11:24:20.935Z,100540.31
2023-03-18T11:26:55.928Z,100546.53
2023-03-18T11:29:29.034Z,100539.47
2023-03-18T11:31:59.235Z,100538.78
2023-03-18T11:34:29.956Z,100536.31
2023-03-18T11:37:01.126Z,100535.25
2023-03-18T11:39:31.572Z,100531.81
2023-03-18T11:42:01.482Z,100529.50
2023-03-18T11:44:32.808Z,100535.25
2023-03-18T11:47:07.345Z,100531.38
2023-03-18T11:49:35.458Z,100537.81
2023-03-18T11:52:15.879Z,100538.78
2023-03-18T11:55:15.693Z,100541.75
2023-03-18T11:58:01.986Z,100538.19
2023-03-18T12:00:38.967Z,100530.03
2023-03-18T12:03:40.941Z,100536.59
2023-03-18T12:06:20.171Z,100542.28
2023-03-18T12:08:54.279Z,100527.09
2023-03-18T12:11:32.972Z,100538.25
2023-03-18T12:14:09.567Z,100537.53
2023-03-18T12:16:50.455Z,100535.28
2023-03-18T12:19:39.934Z,100533.84
2023-03-18T12:22:43.287Z,100540.50
2023-03-18T12:25:30.466Z,100541.81
2023-03-18T12:28:04.150Z,100535.41
2023-03-18T12:30:53.094Z,100530.44
2023-03-18T12:33:37.116Z,100548.00
2023-03-18T12:36:14.077Z,100539.41
2023-03-18T12:39:11.617Z,100537.59
2023-03-18T12:41:50.281Z,100537.97
2023-03-18T12:44:33.484Z,100541.16
2023-03-18T12:47:06.623Z,100540.31
2023-03-18T12:49:39.887Z,100538.72
2023-03-18T12:52:10.476Z,100535.06
2023-03-18T12:54:42.912Z,100532.25
2023-03-18T12:57:18.974Z,100532.28
2023-03-18T12:59:53.335Z,100528.84
2023-03-18T13:02:36.369Z,100533.09
2023-03-18T13:05:14.185Z,100529.66
2023-03-18T13:07:47.085Z,100524.06
2023-03-18T13:10:22.491Z,100523.38
2023-03-18T13:12:54.816Z,100527.03
2023-03-18T13:15:29.949Z,100514.28
2023-03-18T13:18:01.597Z,100526.75
2023-03-18T13:20:34.761Z,100532.28
2023-03-18T13:23:17.508Z,100524.53
2023-03-18T13:25:57.346Z,100527.97
2023-03-18T13:28:41.959Z,100530.50
2023-03-18T13:31:15.463Z,100530.25
2023-03-18T13:33:59.064Z,100528.75
2023-03-18T13:36:55.549Z,100529.84
2023-03-18T13:39:37.384Z,100539.81
2023-03-18T13:42:21.595Z,100533.81
2023-03-18T13:44:56.520Z,100534.75
2023-03-18T13:47:25.478Z,100536.06
2023-03-18T13:50:01.113Z,100529.31
2023-03-18T13:52:36.998Z,100531.09
2023-03-18T13:55:14.466Z,100522.03
2023-03-18T13:57:48.920Z,100525.53
2023-03-18T14:00:34.139Z,100518.94
2023-03-18T14:03:06.388Z,100521.81
2023-03-18T14:05:40.438Z,100522.16
2023-03-18T14:08:37.128Z,100518.34
2023-03-18T14:11:49.853Z,100517.75
2023-03-18T14:15:06.187Z,100508.25
2023-03-18T14:17:46.029Z,100503.16
2023-03-18T14:20:30.022Z,100512.19
2023-03-18T14:23:18.976Z,100507.19
2023-03-18T14:25:54.980Z,100507.91
2023-03-18T14:28:26.420Z,100507.06
2023-03-18T14:31:22.184Z,100505.09
2023-03-18T14:34:02.988Z,100498.88
2023-03-18T14:37:18.487Z,100502.34
2023-03-18T14:39:52.603Z,100502.03
2023-03-18T14:42:31.775Z,100507.84
2023-03-18T14:45:06.611Z,100502.53
2023-03-18T14:47:46.186Z,100505.03
2023-03-18T14:50:19.125Z,100502.66
2023-03-18T14:52:54.037Z,100504.19
2023-03-18T14:55:25.590Z,100507.03
2023-03-18T14:57:54.539Z,100502.31
2023-03-18T15:00:24.176Z,100509.25
2023-03-18T15:03:01.005Z,100504.59
2023-03-18T15:05:35.060Z,100501.72
2023-03-18T15:08:07.199Z,100502.72
2023-03-18T15:10:34.883Z,100494.84
2023-03-18T15:13:07.611Z,100496.84
2023-03-18T15:15:35.931Z,100499.09
2023-03-18T15:18:12.330Z,100491.97
2023-03-18T15:20:40.698Z,100490.31
2023-03-18T15:23:10.156Z,100496.84
2023-03-18T15:25:42.480Z,100496.97
2023-03-18T15:28:19.130Z,100496.38
2023-03-18T15:30:55.730Z,100491.75
2023-03-18T15:33:26.036Z,100501.16
2023-03-18T15:35:58.028Z,100491.53
2023-03-18T15:38:31.118Z,100487.88
2023-03-18T15:41:02.913Z,100491.91
2023-03-18T15:43:35.810Z,100488.34
2023-03-18T15:46:09.457Z,100492.13
2023-03-18T15:48:40.186Z,100484.78
2023-03-18T15:51:22.125Z,100491.19
2023-03-18T15:53:53.512Z,100492.06
2023-03-18T15:56:27.099Z,100489.91
2023-03-18T15:59:03.910Z,100487.66
2023-03-18T16:01:32.011Z,100494.44
2023-03-18T16:04:02.700Z,100489.31
2023-03-18T16:06:34.253Z,100489.50
2023-03-18T16:09:02.256Z,100485.47
2023-03-18T16:11:30.090Z,100484.03
2023-03-18T16:13:59.704Z,100487.28
2023-03-18T16:16:30.635Z,100487.41
2023-03-18T16:18:59.629Z,100483.00
2023-03-18T16:21:27.959Z,100491.09
2023-03-18T16:23:55.878Z,100496.31
2023-03-18T16:26:23.819Z,100493.56
2023-03-18T16:28:51.674Z,100493.56
2023-03-18T16:31:20.687Z,100492.50
2023-03-18T16:33:52.784Z,100488.13
2023-03-18T16:36:28.012Z,100495.72
2023-03-18T16:38:56.091Z,100497.72
2023-03-18T16:41:23.819Z,100504.97
2023-03-18T16:43:52.614Z,100501.66
2023-03-18T16:46:21.624Z,100508.53
2023-03-18T16:48:50.379Z,100510.56
2023-03-18T16:51:19.018Z,100502.09
2023-03-18T16:53:46.662Z,100506.16
2023-03-18T16:56:20.776Z,100507.84
2023-03-18T16:58:48.598Z,100510.09
2023-03-18T17:01:19.207Z,100506.44
2023-03-18T17:03:48.306Z,100515.94
2023-03-18T17:06:16.140Z,100518.31
2023-03-18T17:08:43.850Z,100522.00
2023-03-18T17:11:19.008Z,100518.91
2023-03-18T17:13:47.142Z,100520.22
2023-03-18T17:16:19.886Z,100517.97
2023-03-18T17:18:49.469Z,100513.81
2023-03-18T17:21:17.249Z,100510.72
2023-03-18T17:23:45.733Z,100519.97
2023-03-18T17:26:16.147Z,100516.06
2023-03-18T17:28:46.621Z,100524.69
2023-03-18T17:31:14.878Z,100526.81
2023-03-18T17:33:43.000Z,100527.28
2023-03-18T17:36:13.102Z,100523.13
2023-03-18T17:38:41.816Z,100526.56
2023-03-18T17:41:17.962Z,100534.16
2023-03-18T17:43:45.993Z,100537.38
2023-03-18T17:46:16.354Z,100538.88
2023-03-18T17:48:44.207Z,100531.19
2023-03-18T17:51:16.505Z,100542.56
2023-03-18T17:53:47.824Z,100536.97
2023-03-18T17:56:17.651Z,100547.91
2023-03-18T17:58:47.054Z,100555.97
2023-03-18T18:01:19.459Z,100547.56
2023-03-18T18:03:48.337Z,100540.44
2023-03-18T18:06:19.665Z,100544.00
2023-03-18T18:08:51.400Z,100547.41
2023-03-18T18:11:22.865Z,100548.94
2023-03-18T18:13:52.490Z,100548.81
2023-03-18T18:16:21.511Z,100543.47
2023-03-18T18:18:50.291Z,100537.44
2023-03-18T18:21:22.138Z,100543.09
2023-03-18T18:23:50.322Z,100537.97
2023-03-18T18:26:19.600Z,100551.84
2023-03-18T18:28:49.334Z,100560.50
2023-03-18T18:31:19.279Z,100551.22
2023-03-18T18:33:49.825Z,100553.13
2023-03-18T18:36:21.612Z,100551.31
2023-03-18T18:38:50.691Z,100550.13
2023-03-18T18:41:18.349Z,100557.72
2023-03-18T18:43:47.341Z,100563.84
2023-03-18T18:46:23.477Z,100558.97
2023-03-18T18:48:51.792Z,100557.38
2023-03-18T18:51:22.875Z,100563.50
2023-03-18T18:53:53.371Z,100560.84
2023-03-18T18:56:25.561Z,100559.41
2023-03-18T18:58:54.031Z,100553.81
2023-03-18T19:01:22.092Z,100552.47
2023-03-18T19:03:49.891Z,100555.84
2023-03-18T19:06:30.748Z,100562.44
2023-03-18T19:09:00.461Z,100562.97
2023-03-18T19:11:29.445Z,100552.66
2023-03-18T19:14:18.124Z,100562.88
2023-03-18T19:16:48.077Z,100562.88
2023-03-18T19:19:18.043Z,100563.13
2023-03-18T19:21:47.159Z,100561.44
2023-03-18T19:24:27.161Z,100570.44
2023-03-18T19:26:56.154Z,100570.00
2023-03-18T19:29:24.591Z,100571.06
2023-03-18T19:31:52.765Z,100576.88
2023-03-18T19:34:21.680Z,100570.16
2023-03-18T19:36:53.826Z,100569.06
2023-03-18T19:39:22.863Z,100571.13
2023-03-18T19:41:51.226Z,100568.81
2023-03-18T19:44:20.403Z,100569.22
2023-03-18T19:46:50.798Z,100582.69
2023-03-18T19:49:21.650Z,100578.19
2023-03-18T19:51:51.011Z,100583.22
2023-03-18T19:54:27.024Z,100592.84
2023-03-18T19:56:56.260Z,100607.50
2023-03-18T19:59:33.512Z,100625.97
2023-03-18T20:02:04.991Z,100615.75
2023-03-18T20:04:32.717Z,100624.38
2023-03-18T20:07:04.756Z,100633.16
2023-03-18T20:09:32.567Z,100649.19
2023-03-18T20:12:04.691Z,100630.38
2023-03-18T20:14:40.152Z,100628.97
2023-03-18T20:17:30.589Z,100632.63
2023-03-18T20:19:58.856Z,100639.56
2023-03-18T20:22:31.440Z,100644.25
2023-03-18T20:24:59.407Z,100636.31
2023-03-18T20:27:27.128Z,100641.06
2023-03-18T20:29:54.702Z,100646.09
2023-03-18T20:32:23.669Z,100641.53
2023-03-18T20:34:51.549Z,100639.63
2023-03-18T20:37:25.867Z,100633.34
2023-03-18T20:39:55.061Z,100628.56
2023-03-18T20:42:22.737Z,100635.44
2023-03-18T20:44:50.517Z,100637.94
2023-03-18T20:47:18.439Z,100642.13
2023-03-18T20:49:46.417Z,100635.09
2023-03-18T20:52:25.771Z,100635.31
2023-03-18T20:54:56.484Z,100642.88
2023-03-18T20:57:24.579Z,100634.28
2023-03-18T20:59:52.738Z,100630.09
2023-03-18T21:02:29.722Z,100635.19
2023-03-18T21:04:58.246Z,100636.25
2023-03-18T21:07:28.738Z,100630.38
2023-03-18T21:09:59.908Z,100633.69
2023-03-18T21:12:27.912Z,100631.38
2023-03-18T21:14:55.907Z,100633.03
2023-03-18T21:17:25.873Z,100619.50
2023-03-18T21:20:04.931Z,100630.00
2023-03-18T21:22:38.995Z,100633.59
2023-03-18T21:25:12.435Z,100635.69
2023-03-18T21:27:40.073Z,100636.72
2023-03-18T21:30:09.912Z,100633.78
2023-03-18T21:32:39.850Z,100626.88
2023-03-18T21:35:15.664Z,100621.63
2023-03-18T21:37:43.493Z,100623.94
2023-03-18T21:40:16.921Z,100617.47
2023-03-18T21:42:44.701Z,100636.31
2023-03-18T21:45:14.352Z,100638.84
2023-03-18T21:47:42.382Z,100633.22
2023-03-18T21:50:20.572Z,100640.13
2023-03-18T21:52:48.581Z,100635.53
2023-03-18T21:55:17.955Z,100633.84
2023-03-18T21:57:48.295Z,100634.91
2023-03-18T22:00:19.815Z,100628.00
2023-03-18T22:02:48.755Z,100628.81
2023-03-18T22:05:19.116Z,100631.09
2023-03-18T22:07:47.541Z,100621.28
2023-03-18T22:10:17.905Z,100616.09
2023-03-18T22:12:45.942Z,100622.59
2023-03-18T22:15:34.886Z,100630.97
2023-03-18T22:18:03.018Z,100632.25
2023-03-18T22:20:31.397Z,100633.91
2023-03-18T22:22:59.182Z,100632.66
2023-03-18T22:25:31.343Z,100629.50
2023-03-18T22:27:59.999Z,100621.13
2023-03-18T22:30:30.191Z,100622.59
2023-03-18T22:32:58.652Z,100621.38
2023-03-18T22:35:27.796Z,100618.06
2023-03-18T22:37:56.045Z,100624.53
2023-03-18T22:40:25.839Z,100618.88
2023-03-18T22:42:57.004Z,100624.56
2023-03-18T22:45:27.287Z,100624.38
2023-03-18T22:47:56.792Z,100623.53
2023-03-18T22:50:25.902Z,100625.66
2023-03-18T22:52:58.915Z,100618.31
2023-03-18T22:55:29.330Z,100632.97
2023-03-18T22:57:58.360Z,100627.53
2023-03-18T23:00:33.709Z,100623.13
2023-03-18T23:03:03.305Z,100619.38
2023-03-18T23:05:32.740Z,100625.22
2023-03-18T23:08:00.581Z,100623.97
2023-03-18T23:10:28.421Z,100613.13
2023-03-18T23:12:56.241Z,100611.44
2023-03-18T23:15:25.473Z,100608.72
2023-03-18T23:17:53.214Z,100606.00
2023-03-18T23:20:20.892Z,100612.91
2023-03-18T23:22:48.556Z,100605.63
2023-03-18T23:25:18.429Z,100598.72
2023-03-18T23:27:46.324Z,100605.59
2023-03-18T23:30:14.874Z,100598.50
2023-03-18T23:32:45.186Z,100604.78
2023-03-18T23:35:13.323Z,100603.13
2023-03-18T23:37:41.110Z,100606.47
2023-03-18T23:40:10.155Z,100608.78
2023-03-18T23:42:37.825Z,100609.41
2023-03-18T23:45:06.642Z,100607.28
2023-03-18T23:47:34.474Z,100612.94
2023-03-18T23:50:03.663Z,100606.50
2023-03-18T23:52:31.237Z,100608.16
2023-03-18T23:54:59.207Z,100603.34
2023-03-18T23:57:27.998Z,100610.88
2023-03-18T23:59:55.752Z,100606.28
